sensor_id;sensor_type;location;lat;lon;timestamp;P1;P2;P0
48155;PMS5003;35568;48.104;11.782;2023-06-10T00:01:02;12;12;
48155;PMS5003;35568;48.104;11.782;2023-06-10T00:03:29;14;14;
48155;PMS5003;35568;48.104;11.782;2023-06-10T00:05:56;14;12;
48155;PMS5003;35568;48.104;11.782;2023-06-10T00:08:23;11;11;
48155;PMS5003;35568;48.104;11.782;2023-06-10T00:10:50;11;11;
48155;PMS5003;35568;48.104;11.782;2023-06-10T00:13:17;9;8;
48155;PMS5003;35568;48.104;11.782;2023-06-10T00:15:44;11;10;
48155;PMS5003;35568;48.104;11.782;2023-06-10T00:18:11;12;11;
48155;PMS5003;35568;48.104;11.782;2023-06-10T00:20:38;13;11;
48155;PMS5003;35568;48.104;11.782;2023-06-10T00:23:04;15;14;
48155;PMS5003;35568;48.104;11.782;2023-06-10T00:25:31;11;11;
48155;PMS5003;35568;48.104;11.782;2023-06-10T00:27:58;11;11;
48155;PMS5003;35568;48.104;11.782;2023-06-10T00:30:25;10;9;
48155;PMS5003;35568;48.104;11.782;2023-06-10T00:32:51;12;12;
48155;PMS5003;35568;48.104;11.782;2023-06-10T00:35:18;17;16;
48155;PMS5003;35568;48.104;11.782;2023-06-10T00:37:45;10;10;
48155;PMS5003;35568;48.104;11.782;2023-06-10T00:40:12;9;9;
48155;PMS5003;35568;48.104;11.782;2023-06-10T00:42:39;12;12;
48155;PMS5003;35568;48.104;11.782;2023-06-10T00:45:06;10;10;
48155;PMS5003;35568;48.104;11.782;2023-06-10T00:47:33;13;12;
48155;PMS5003;35568;48.104;11.782;2023-06-10T00:50:01;14;12;
48155;PMS5003;35568;48.104;11.782;2023-06-10T00:52:29;14;11;
48155;PMS5003;35568;48.104;11.782;2023-06-10T00:54:56;10;10;
48155;PMS5003;35568;48.104;11.782;2023-06-10T00:57:23;12;12;
48155;PMS5003;35568;48.104;11.782;2023-06-10T00:59:50;13;12;
48155;PMS5003;35568;48.104;11.782;2023-06-10T01:02:18;15;13;
48155;PMS5003;35568;48.104;11.782;2023-06-10T01:04:45;12;12;
48155;PMS5003;35568;48.104;11.782;2023-06-10T01:07:14;12;11;
48155;PMS5003;35568;48.104;11.782;2023-06-10T01:09:51;13;12;
48155;PMS5003;35568;48.104;11.782;2023-06-10T01:12:26;14;14;
48155;PMS5003;35568;48.104;11.782;2023-06-10T01:14:59;13;12;
48155;PMS5003;35568;48.104;11.782;2023-06-10T01:17:27;16;16;
48155;PMS5003;35568;48.104;11.782;2023-06-10T01:19:55;10;10;
48155;PMS5003;35568;48.104;11.782;2023-06-10T01:22:23;12;11;
48155;PMS5003;35568;48.104;11.782;2023-06-10T01:24:50;12;12;
48155;PMS5003;35568;48.104;11.782;2023-06-10T01:27:17;13;11;
48155;PMS5003;35568;48.104;11.782;2023-06-10T01:29:49;12;11;
48155;PMS5003;35568;48.104;11.782;2023-06-10T01:32:21;13;13;
48155;PMS5003;35568;48.104;11.782;2023-06-10T01:34:53;10;9;
48155;PMS5003;35568;48.104;11.782;2023-06-10T01:37:22;13;12;
48155;PMS5003;35568;48.104;11.782;2023-06-10T01:39:52;14;12;
48155;PMS5003;35568;48.104;11.782;2023-06-10T01:42:23;10;10;
48155;PMS5003;35568;48.104;11.782;2023-06-10T01:44:51;13;13;
48155;PMS5003;35568;48.104;11.782;2023-06-10T01:47:19;12;12;
48155;PMS5003;35568;48.104;11.782;2023-06-10T01:49:46;13;12;
48155;PMS5003;35568;48.104;11.782;2023-06-10T01:52:13;12;11;
48155;PMS5003;35568;48.104;11.782;2023-06-10T01:54:40;13;12;
48155;PMS5003;35568;48.104;11.782;2023-06-10T01:57:07;12;12;
48155;PMS5003;35568;48.104;11.782;2023-06-10T01:59:34;11;11;
48155;PMS5003;35568;48.104;11.782;2023-06-10T02:02:01;13;12;
48155;PMS5003;35568;48.104;11.782;2023-06-10T02:04:28;14;13;
48155;PMS5003;35568;48.104;11.782;2023-06-10T02:06:55;11;11;
48155;PMS5003;35568;48.104;11.782;2023-06-10T02:09:22;13;12;
48155;PMS5003;35568;48.104;11.782;2023-06-10T02:11:49;14;13;
48155;PMS5003;35568;48.104;11.782;2023-06-10T02:14:16;12;12;
48155;PMS5003;35568;48.104;11.782;2023-06-10T02:16:43;11;10;
48155;PMS5003;35568;48.104;11.782;2023-06-10T02:19:10;10;10;
48155;PMS5003;35568;48.104;11.782;2023-06-10T02:21:37;13;12;
48155;PMS5003;35568;48.104;11.782;2023-06-10T02:24:04;13;12;
48155;PMS5003;35568;48.104;11.782;2023-06-10T02:26:32;12;12;
48155;PMS5003;35568;48.104;11.782;2023-06-10T02:28:59;12;12;
48155;PMS5003;35568;48.104;11.782;2023-06-10T02:31:26;13;13;
48155;PMS5003;35568;48.104;11.782;2023-06-10T02:33:53;9;9;
48155;PMS5003;35568;48.104;11.782;2023-06-10T02:36:20;12;11;
48155;PMS5003;35568;48.104;11.782;2023-06-10T02:38:47;12;11;
48155;PMS5003;35568;48.104;11.782;2023-06-10T02:41:14;12;11;
48155;PMS5003;35568;48.104;11.782;2023-06-10T02:43:41;12;11;
48155;PMS5003;35568;48.104;11.782;2023-06-10T02:46:08;12;11;
48155;PMS5003;35568;48.104;11.782;2023-06-10T02:48:40;14;14;
48155;PMS5003;35568;48.104;11.782;2023-06-10T02:51:08;14;13;
48155;PMS5003;35568;48.104;11.782;2023-06-10T02:53:35;14;13;
48155;PMS5003;35568;48.104;11.782;2023-06-10T02:56:02;12;12;
48155;PMS5003;35568;48.104;11.782;2023-06-10T02:58:29;11;11;
48155;PMS5003;35568;48.104;11.782;2023-06-10T03:03:00;11;11;
48155;PMS5003;35568;48.104;11.782;2023-06-10T03:05:28;13;13;
48155;PMS5003;35568;48.104;11.782;2023-06-10T03:07:55;14;14;
48155;PMS5003;35568;48.104;11.782;2023-06-10T03:10:21;14;14;
48155;PMS5003;35568;48.104;11.782;2023-06-10T03:12:48;12;12;
48155;PMS5003;35568;48.104;11.782;2023-06-10T03:15:15;13;13;
48155;PMS5003;35568;48.104;11.782;2023-06-10T03:17:41;13;12;
48155;PMS5003;35568;48.104;11.782;2023-06-10T03:20:09;12;11;
48155;PMS5003;35568;48.104;11.782;2023-06-10T03:22:36;13;12;
48155;PMS5003;35568;48.104;11.782;2023-06-10T03:25:03;18;16;
48155;PMS5003;35568;48.104;11.782;2023-06-10T03:27:31;13;12;
48155;PMS5003;35568;48.104;11.782;2023-06-10T03:29:58;11;11;
48155;PMS5003;35568;48.104;11.782;2023-06-10T03:32:25;16;15;
48155;PMS5003;35568;48.104;11.782;2023-06-10T03:34:52;15;14;
48155;PMS5003;35568;48.104;11.782;2023-06-10T03:37:18;13;13;
48155;PMS5003;35568;48.104;11.782;2023-06-10T03:39:46;13;12;
48155;PMS5003;35568;48.104;11.782;2023-06-10T03:42:12;19;18;
48155;PMS5003;35568;48.104;11.782;2023-06-10T03:44:40;14;14;
48155;PMS5003;35568;48.104;11.782;2023-06-10T03:47:06;14;13;
48155;PMS5003;35568;48.104;11.782;2023-06-10T03:49:33;10;10;
48155;PMS5003;35568;48.104;11.782;2023-06-10T03:52:00;14;12;
48155;PMS5003;35568;48.104;11.782;2023-06-10T03:54:27;11;11;
48155;PMS5003;35568;48.104;11.782;2023-06-10T03:56:53;14;12;
48155;PMS5003;35568;48.104;11.782;2023-06-10T03:59:21;16;16;
48155;PMS5003;35568;48.104;11.782;2023-06-10T04:01:47;13;13;
48155;PMS5003;35568;48.104;11.782;2023-06-10T04:04:14;11;11;
48155;PMS5003;35568;48.104;11.782;2023-06-10T04:06:41;13;13;
48155;PMS5003;35568;48.104;11.782;2023-06-10T04:09:08;11;11;
48155;PMS5003;35568;48.104;11.782;2023-06-10T04:11:35;17;16;
48155;PMS5003;35568;48.104;11.782;2023-06-10T04:14:02;14;14;
48155;PMS5003;35568;48.104;11.782;2023-06-10T04:16:29;17;15;
48155;PMS5003;35568;48.104;11.782;2023-06-10T04:18:57;15;14;
48155;PMS5003;35568;48.104;11.782;2023-06-10T04:21:25;19;18;
48155;PMS5003;35568;48.104;11.782;2023-06-10T04:23:52;16;15;
48155;PMS5003;35568;48.104;11.782;2023-06-10T04:26:19;17;16;
48155;PMS5003;35568;48.104;11.782;2023-06-10T04:28:46;16;16;
48155;PMS5003;35568;48.104;11.782;2023-06-10T04:31:12;19;16;
48155;PMS5003;35568;48.104;11.782;2023-06-10T04:33:40;17;17;
48155;PMS5003;35568;48.104;11.782;2023-06-10T04:36:06;19;18;
48155;PMS5003;35568;48.104;11.782;2023-06-10T04:38:33;15;14;
48155;PMS5003;35568;48.104;11.782;2023-06-10T04:41:01;19;15;
48155;PMS5003;35568;48.104;11.782;2023-06-10T04:43:29;13;13;
48155;PMS5003;35568;48.104;11.782;2023-06-10T04:45:57;18;18;
48155;PMS5003;35568;48.104;11.782;2023-06-10T04:48:23;14;14;
48155;PMS5003;35568;48.104;11.782;2023-06-10T04:50:50;14;14;
48155;PMS5003;35568;48.104;11.782;2023-06-10T04:53:18;16;14;
48155;PMS5003;35568;48.104;11.782;2023-06-10T04:55:45;13;12;
48155;PMS5003;35568;48.104;11.782;2023-06-10T04:58:12;17;16;
48155;PMS5003;35568;48.104;11.782;2023-06-10T05:00:40;14;13;
48155;PMS5003;35568;48.104;11.782;2023-06-10T05:03:07;14;13;
48155;PMS5003;35568;48.104;11.782;2023-06-10T05:05:34;15;13;
48155;PMS5003;35568;48.104;11.782;2023-06-10T05:08:00;12;12;
48155;PMS5003;35568;48.104;11.782;2023-06-10T05:10:28;13;13;
48155;PMS5003;35568;48.104;11.782;2023-06-10T05:12:54;14;14;
48155;PMS5003;35568;48.104;11.782;2023-06-10T05:15:21;12;11;
48155;PMS5003;35568;48.104;11.782;2023-06-10T05:17:47;16;16;
48155;PMS5003;35568;48.104;11.782;2023-06-10T05:20:15;15;14;
48155;PMS5003;35568;48.104;11.782;2023-06-10T05:22:42;16;15;
48155;PMS5003;35568;48.104;11.782;2023-06-10T05:25:09;14;13;
48155;PMS5003;35568;48.104;11.782;2023-06-10T05:27:36;12;11;
48155;PMS5003;35568;48.104;11.782;2023-06-10T05:30:04;14;14;
48155;PMS5003;35568;48.104;11.782;2023-06-10T05:32:32;14;14;
48155;PMS5003;35568;48.104;11.782;2023-06-10T05:34:59;14;13;
48155;PMS5003;35568;48.104;11.782;2023-06-10T05:37:26;16;15;
48155;PMS5003;35568;48.104;11.782;2023-06-10T05:39:53;15;15;
48155;PMS5003;35568;48.104;11.782;2023-06-10T05:42:20;13;13;
48155;PMS5003;35568;48.104;11.782;2023-06-10T05:44:46;17;16;
48155;PMS5003;35568;48.104;11.782;2023-06-10T05:47:13;14;13;
48155;PMS5003;35568;48.104;11.782;2023-06-10T05:49:40;13;13;
48155;PMS5003;35568;48.104;11.782;2023-06-10T05:52:07;11;10;
48155;PMS5003;35568;48.104;11.782;2023-06-10T05:54:34;12;12;
48155;PMS5003;35568;48.104;11.782;2023-06-10T05:57:01;14;13;
48155;PMS5003;35568;48.104;11.782;2023-06-10T05:59:29;12;12;
48155;PMS5003;35568;48.104;11.782;2023-06-10T06:01:56;12;12;
48155;PMS5003;35568;48.104;11.782;2023-06-10T06:04:22;15;15;
48155;PMS5003;35568;48.104;11.782;2023-06-10T06:06:50;11;11;
48155;PMS5003;35568;48.104;11.782;2023-06-10T06:09:17;14;14;
48155;PMS5003;35568;48.104;11.782;2023-06-10T06:11:43;12;12;
48155;PMS5003;35568;48.104;11.782;2023-06-10T06:14:10;11;11;
48155;PMS5003;35568;48.104;11.782;2023-06-10T06:16:37;12;11;
48155;PMS5003;35568;48.104;11.782;2023-06-10T06:19:04;13;12;
48155;PMS5003;35568;48.104;11.782;2023-06-10T06:21:31;11;11;
48155;PMS5003;35568;48.104;11.782;2023-06-10T06:23:59;11;11;
48155;PMS5003;35568;48.104;11.782;2023-06-10T06:26:25;9;9;
48155;PMS5003;35568;48.104;11.782;2023-06-10T06:28:53;12;11;
48155;PMS5003;35568;48.104;11.782;2023-06-10T06:31:20;9;9;
48155;PMS5003;35568;48.104;11.782;2023-06-10T06:33:47;9;9;
48155;PMS5003;35568;48.104;11.782;2023-06-10T06:36:14;10;10;
48155;PMS5003;35568;48.104;11.782;2023-06-10T06:38:41;11;10;
48155;PMS5003;35568;48.104;11.782;2023-06-10T06:41:08;10;9;
48155;PMS5003;35568;48.104;11.782;2023-06-10T06:43:35;9;9;
48155;PMS5003;35568;48.104;11.782;2023-06-10T06:46:02;10;10;
48155;PMS5003;35568;48.104;11.782;2023-06-10T06:48:29;10;9;
48155;PMS5003;35568;48.104;11.782;2023-06-10T06:50:56;7;6;
48155;PMS5003;35568;48.104;11.782;2023-06-10T06:53:23;10;9;
48155;PMS5003;35568;48.104;11.782;2023-06-10T06:55:50;9;9;
48155;PMS5003;35568;48.104;11.782;2023-06-10T06:58:16;13;11;
48155;PMS5003;35568;48.104;11.782;2023-06-10T07:00:43;8;7;
48155;PMS5003;35568;48.104;11.782;2023-06-10T07:03:10;9;9;
48155;PMS5003;35568;48.104;11.782;2023-06-10T07:05:37;8;8;
48155;PMS5003;35568;48.104;11.782;2023-06-10T07:08:04;7;7;
48155;PMS5003;35568;48.104;11.782;2023-06-10T07:10:31;6;6;
48155;PMS5003;35568;48.104;11.782;2023-06-10T07:12:58;7;7;
48155;PMS5003;35568;48.104;11.782;2023-06-10T07:15:25;9;8;
48155;PMS5003;35568;48.104;11.782;2023-06-10T07:17:52;7;7;
48155;PMS5003;35568;48.104;11.782;2023-06-10T07:20:18;7;6;
48155;PMS5003;35568;48.104;11.782;2023-06-10T07:22:45;6;6;
48155;PMS5003;35568;48.104;11.782;2023-06-10T07:25:12;6;6;
48155;PMS5003;35568;48.104;11.782;2023-06-10T07:27:39;7;5;
48155;PMS5003;35568;48.104;11.782;2023-06-10T07:30:07;6;5;
48155;PMS5003;35568;48.104;11.782;2023-06-10T07:32:35;7;6;
48155;PMS5003;35568;48.104;11.782;2023-06-10T07:35:02;3;3;
48155;PMS5003;35568;48.104;11.782;2023-06-10T07:37:29;6;5;
48155;PMS5003;35568;48.104;11.782;2023-06-10T07:39:56;6;6;
48155;PMS5003;35568;48.104;11.782;2023-06-10T07:42:23;6;6;
48155;PMS5003;35568;48.104;11.782;2023-06-10T07:44:50;5;4;
48155;PMS5003;35568;48.104;11.782;2023-06-10T07:47:16;5;5;
48155;PMS5003;35568;48.104;11.782;2023-06-10T07:49:44;4;4;
48155;PMS5003;35568;48.104;11.782;2023-06-10T07:52:11;7;6;
48155;PMS5003;35568;48.104;11.782;2023-06-10T07:54:37;6;6;
48155;PMS5003;35568;48.104;11.782;2023-06-10T07:57:05;4;4;
48155;PMS5003;35568;48.104;11.782;2023-06-10T07:59:32;4;4;
48155;PMS5003;35568;48.104;11.782;2023-06-10T08:01:59;4;4;
48155;PMS5003;35568;48.104;11.782;2023-06-10T08:04:26;4;4;
48155;PMS5003;35568;48.104;11.782;2023-06-10T08:06:56;3;3;
48155;PMS5003;35568;48.104;11.782;2023-06-10T08:09:26;3;3;
48155;PMS5003;35568;48.104;11.782;2023-06-10T08:11:53;4;4;
48155;PMS5003;35568;48.104;11.782;2023-06-10T08:14:19;4;4;
48155;PMS5003;35568;48.104;11.782;2023-06-10T08:16:46;5;5;
48155;PMS5003;35568;48.104;11.782;2023-06-10T08:19:13;4;3;
48155;PMS5003;35568;48.104;11.782;2023-06-10T08:21:40;5;5;
48155;PMS5003;35568;48.104;11.782;2023-06-10T08:24:07;4;4;
48155;PMS5003;35568;48.104;11.782;2023-06-10T08:26:33;5;5;
48155;PMS5003;35568;48.104;11.782;2023-06-10T08:29:00;6;6;
48155;PMS5003;35568;48.104;11.782;2023-06-10T08:31:28;6;5;
48155;PMS5003;35568;48.104;11.782;2023-06-10T08:33:54;6;6;
48155;PMS5003;35568;48.104;11.782;2023-06-10T08:36:21;5;5;
48155;PMS5003;35568;48.104;11.782;2023-06-10T08:38:48;6;5;
48155;PMS5003;35568;48.104;11.782;2023-06-10T08:41:17;5;5;
48155;PMS5003;35568;48.104;11.782;2023-06-10T08:43:45;5;5;
48155;PMS5003;35568;48.104;11.782;2023-06-10T08:46:19;4;4;
48155;PMS5003;35568;48.104;11.782;2023-06-10T08:48:46;4;4;
48155;PMS5003;35568;48.104;11.782;2023-06-10T08:51:18;5;5;
48155;PMS5003;35568;48.104;11.782;2023-06-10T08:53:48;4;3;
48155;PMS5003;35568;48.104;11.782;2023-06-10T08:56:21;3;3;
48155;PMS5003;35568;48.104;11.782;2023-06-10T08:58:51;6;5;
48155;PMS5003;35568;48.104;11.782;2023-06-10T09:01:18;5;5;
48155;PMS5003;35568;48.104;11.782;2023-06-10T09:03:47;6;6;
48155;PMS5003;35568;48.104;11.782;2023-06-10T09:06:15;5;5;
48155;PMS5003;35568;48.104;11.782;2023-06-10T09:08:43;5;4;
48155;PMS5003;35568;48.104;11.782;2023-06-10T09:11:10;5;5;
48155;PMS5003;35568;48.104;11.782;2023-06-10T09:13:37;4;4;
48155;PMS5003;35568;48.104;11.782;2023-06-10T09:16:04;5;5;
48155;PMS5003;35568;48.104;11.782;2023-06-10T09:18:31;4;4;
48155;PMS5003;35568;48.104;11.782;2023-06-10T09:20:58;3;3;
48155;PMS5003;35568;48.104;11.782;2023-06-10T09:23:26;4;4;
48155;PMS5003;35568;48.104;11.782;2023-06-10T09:25:57;4;3;
48155;PMS5003;35568;48.104;11.782;2023-06-10T09:28:25;5;5;
48155;PMS5003;35568;48.104;11.782;2023-06-10T09:31:01;6;6;
48155;PMS5003;35568;48.104;11.782;2023-06-10T09:33:29;5;5;
48155;PMS5003;35568;48.104;11.782;2023-06-10T09:35:56;6;5;
48155;PMS5003;35568;48.104;11.782;2023-06-10T09:38:23;5;5;
48155;PMS5003;35568;48.104;11.782;2023-06-10T09:40:55;5;5;
48155;PMS5003;35568;48.104;11.782;2023-06-10T09:43:22;5;5;
48155;PMS5003;35568;48.104;11.782;2023-06-10T09:45:49;5;5;
48155;PMS5003;35568;48.104;11.782;2023-06-10T09:48:16;6;6;
48155;PMS5003;35568;48.104;11.782;2023-06-10T09:50:43;5;5;
48155;PMS5003;35568;48.104;11.782;2023-06-10T09:53:12;6;5;
48155;PMS5003;35568;48.104;11.782;2023-06-10T09:55:39;5;5;
48155;PMS5003;35568;48.104;11.782;2023-06-10T09:58:07;5;5;
48155;PMS5003;35568;48.104;11.782;2023-06-10T10:00:34;5;5;
48155;PMS5003;35568;48.104;11.782;2023-06-10T10:03:02;6;6;
48155;PMS5003;35568;48.104;11.782;2023-06-10T10:05:29;6;6;
48155;PMS5003;35568;48.104;11.782;2023-06-10T10:07:56;5;5;
48155;PMS5003;35568;48.104;11.782;2023-06-10T10:10:22;6;5;
48155;PMS5003;35568;48.104;11.782;2023-06-10T10:12:51;4;3;
48155;PMS5003;35568;48.104;11.782;2023-06-10T10:15:20;5;5;
48155;PMS5003;35568;48.104;11.782;2023-06-10T10:17:52;5;5;
48155;PMS5003;35568;48.104;11.782;2023-06-10T10:20:24;5;5;
48155;PMS5003;35568;48.104;11.782;2023-06-10T10:22:55;6;6;
48155;PMS5003;35568;48.104;11.782;2023-06-10T10:25:25;6;5;
48155;PMS5003;35568;48.104;11.782;2023-06-10T10:27:55;4;4;
48155;PMS5003;35568;48.104;11.782;2023-06-10T10:30:24;4;4;
48155;PMS5003;35568;48.104;11.782;2023-06-10T10:32:56;5;5;
48155;PMS5003;35568;48.104;11.782;2023-06-10T10:35:25;3;3;
48155;PMS5003;35568;48.104;11.782;2023-06-10T10:37:53;4;4;
48155;PMS5003;35568;48.104;11.782;2023-06-10T10:40:21;5;3;
48155;PMS5003;35568;48.104;11.782;2023-06-10T10:42:50;4;4;
48155;PMS5003;35568;48.104;11.782;2023-06-10T10:45:17;3;3;
48155;PMS5003;35568;48.104;11.782;2023-06-10T10:47:45;3;3;
48155;PMS5003;35568;48.104;11.782;2023-06-10T10:50:14;4;4;
48155;PMS5003;35568;48.104;11.782;2023-06-10T10:52:51;4;4;
48155;PMS5003;35568;48.104;11.782;2023-06-10T10:55:20;4;4;
48155;PMS5003;35568;48.104;11.782;2023-06-10T10:57:53;4;3;
48155;PMS5003;35568;48.104;11.782;2023-06-10T11:00:27;3;3;
48155;PMS5003;35568;48.104;11.782;2023-06-10T11:02:57;2;1;
48155;PMS5003;35568;48.104;11.782;2023-06-10T11:05:41;5;5;
48155;PMS5003;35568;48.104;11.782;2023-06-10T11:08:10;3;3;
48155;PMS5003;35568;48.104;11.782;2023-06-10T11:10:37;3;3;
48155;PMS5003;35568;48.104;11.782;2023-06-10T11:13:06;3;3;
48155;PMS5003;35568;48.104;11.782;2023-06-10T11:15:40;3;3;
48155;PMS5003;35568;48.104;11.782;2023-06-10T11:18:12;3;2;
48155;PMS5003;35568;48.104;11.782;2023-06-10T11:20:57;0;0;
48155;PMS5003;35568;48.104;11.782;2023-06-10T11:23:29;5;4;
48155;PMS5003;35568;48.104;11.782;2023-06-10T11:26:16;3;3;
48155;PMS5003;35568;48.104;11.782;2023-06-10T11:29:16;3;3;
48155;PMS5003;35568;48.104;11.782;2023-06-10T11:31:44;3;3;
48155;PMS5003;35568;48.104;11.782;2023-06-10T11:34:13;5;5;
48155;PMS5003;35568;48.104;11.782;2023-06-10T11:36:40;2;2;
48155;PMS5003;35568;48.104;11.782;2023-06-10T11:39:09;4;4;
48155;PMS5003;35568;48.104;11.782;2023-06-10T11:41:38;3;3;
48155;PMS5003;35568;48.104;11.782;2023-06-10T11:44:08;3;3;
48155;PMS5003;35568;48.104;11.782;2023-06-10T11:46:37;2;2;
48155;PMS5003;35568;48.104;11.782;2023-06-10T11:49:04;3;3;
48155;PMS5003;35568;48.104;11.782;2023-06-10T11:51:33;4;4;
48155;PMS5003;35568;48.104;11.782;2023-06-10T11:54:01;5;4;
48155;PMS5003;35568;48.104;11.782;2023-06-10T11:56:29;2;2;
48155;PMS5003;35568;48.104;11.782;2023-06-10T11:58:58;4;4;
48155;PMS5003;35568;48.104;11.782;2023-06-10T12:01:26;1;1;
48155;PMS5003;35568;48.104;11.782;2023-06-10T12:03:57;3;3;
48155;PMS5003;35568;48.104;11.782;2023-06-10T12:06:27;5;5;
48155;PMS5003;35568;48.104;11.782;2023-06-10T12:09:05;3;3;
48155;PMS5003;35568;48.104;11.782;2023-06-10T12:11:43;4;4;
48155;PMS5003;35568;48.104;11.782;2023-06-10T12:14:11;4;4;
48155;PMS5003;35568;48.104;11.782;2023-06-10T12:16:40;3;3;
48155;PMS5003;35568;48.104;11.782;2023-06-10T12:19:14;4;3;
48155;PMS5003;35568;48.104;11.782;2023-06-10T12:21:43;4;3;
48155;PMS5003;35568;48.104;11.782;2023-06-10T12:24:13;3;3;
48155;PMS5003;35568;48.104;11.782;2023-06-10T12:26:42;6;6;
48155;PMS5003;35568;48.104;11.782;2023-06-10T12:29:15;4;3;
48155;PMS5003;35568;48.104;11.782;2023-06-10T12:31:54;3;3;
48155;PMS5003;35568;48.104;11.782;2023-06-10T12:34:34;4;4;
48155;PMS5003;35568;48.104;11.782;2023-06-10T12:37:03;5;5;
48155;PMS5003;35568;48.104;11.782;2023-06-10T12:39:34;4;4;
48155;PMS5003;35568;48.104;11.782;2023-06-10T12:42:03;5;4;
48155;PMS5003;35568;48.104;11.782;2023-06-10T12:44:33;5;5;
48155;PMS5003;35568;48.104;11.782;2023-06-10T12:47:06;4;4;
48155;PMS5003;35568;48.104;11.782;2023-06-10T12:49:34;5;5;
48155;PMS5003;35568;48.104;11.782;2023-06-10T12:52:02;6;6;
48155;PMS5003;35568;48.104;11.782;2023-06-10T12:54:30;6;6;
48155;PMS5003;35568;48.104;11.782;2023-06-10T12:56:57;5;5;
48155;PMS5003;35568;48.104;11.782;2023-06-10T12:59:25;6;5;
48155;PMS5003;35568;48.104;11.782;2023-06-10T13:01:52;6;6;
48155;PMS5003;35568;48.104;11.782;2023-06-10T13:04:21;5;5;
48155;PMS5003;35568;48.104;11.782;2023-06-10T13:06:48;6;5;
48155;PMS5003;35568;48.104;11.782;2023-06-10T13:09:15;6;6;
48155;PMS5003;35568;48.104;11.782;2023-06-10T13:11:43;7;5;
48155;PMS5003;35568;48.104;11.782;2023-06-10T13:14:10;5;5;
48155;PMS5003;35568;48.104;11.782;2023-06-10T13:16:37;8;7;
48155;PMS5003;35568;48.104;11.782;2023-06-10T13:19:05;7;6;
48155;PMS5003;35568;48.104;11.782;2023-06-10T13:21:32;4;4;
48155;PMS5003;35568;48.104;11.782;2023-06-10T13:24:01;5;5;
48155;PMS5003;35568;48.104;11.782;2023-06-10T13:26:29;5;5;
48155;PMS5003;35568;48.104;11.782;2023-06-10T13:28:57;6;5;
48155;PMS5003;35568;48.104;11.782;2023-06-10T13:31:25;6;6;
48155;PMS5003;35568;48.104;11.782;2023-06-10T13:33:53;7;7;
48155;PMS5003;35568;48.104;11.782;2023-06-10T13:36:20;4;3;
48155;PMS5003;35568;48.104;11.782;2023-06-10T13:38:47;4;4;
48155;PMS5003;35568;48.104;11.782;2023-06-10T13:41:14;6;5;
48155;PMS5003;35568;48.104;11.782;2023-06-10T13:43:42;6;6;
48155;PMS5003;35568;48.104;11.782;2023-06-10T13:46:10;5;5;
48155;PMS5003;35568;48.104;11.782;2023-06-10T13:48:38;6;4;
48155;PMS5003;35568;48.104;11.782;2023-06-10T13:48:55;6;4;
48155;PMS5003;35568;48.104;11.782;2023-06-10T13:51:24;5;5;
48155;PMS5003;35568;48.104;11.782;2023-06-10T13:53:53;4;4;
48155;PMS5003;35568;48.104;11.782;2023-06-10T13:56:23;7;6;
48155;PMS5003;35568;48.104;11.782;2023-06-10T13:58:52;4;4;
48155;PMS5003;35568;48.104;11.782;2023-06-10T14:01:20;5;5;
48155;PMS5003;35568;48.104;11.782;2023-06-10T14:03:50;5;5;
48155;PMS5003;35568;48.104;11.782;2023-06-10T14:06:24;5;4;
48155;PMS5003;35568;48.104;11.782;2023-06-10T14:09:01;4;4;
48155;PMS5003;35568;48.104;11.782;2023-06-10T14:11:29;5;5;
48155;PMS5003;35568;48.104;11.782;2023-06-10T14:13:56;3;3;
48155;PMS5003;35568;48.104;11.782;2023-06-10T14:16:23;4;4;
48155;PMS5003;35568;48.104;11.782;2023-06-10T14:18:50;5;5;
48155;PMS5003;35568;48.104;11.782;2023-06-10T14:21:17;5;4;
48155;PMS5003;35568;48.104;11.782;2023-06-10T14:23:44;6;5;
48155;PMS5003;35568;48.104;11.782;2023-06-10T14:26:11;4;4;
48155;PMS5003;35568;48.104;11.782;2023-06-10T14:28:38;4;3;
48155;PMS5003;35568;48.104;11.782;2023-06-10T14:31:06;4;4;
48155;PMS5003;35568;48.104;11.782;2023-06-10T14:33:33;3;3;
48155;PMS5003;35568;48.104;11.782;2023-06-10T14:36:00;3;3;
48155;PMS5003;35568;48.104;11.782;2023-06-10T14:38:27;3;3;
48155;PMS5003;35568;48.104;11.782;2023-06-10T14:40:54;4;4;
48155;PMS5003;35568;48.104;11.782;2023-06-10T14:43:21;5;5;
48155;PMS5003;35568;48.104;11.782;2023-06-10T14:45:48;4;4;
48155;PMS5003;35568;48.104;11.782;2023-06-10T14:48:14;4;4;
48155;PMS5003;35568;48.104;11.782;2023-06-10T14:50:41;4;4;
48155;PMS5003;35568;48.104;11.782;2023-06-10T14:53:08;4;4;
48155;PMS5003;35568;48.104;11.782;2023-06-10T14:55:35;5;4;
48155;PMS5003;35568;48.104;11.782;2023-06-10T14:58:02;4;4;
48155;PMS5003;35568;48.104;11.782;2023-06-10T15:00:29;4;4;
48155;PMS5003;35568;48.104;11.782;2023-06-10T15:02:56;6;6;
48155;PMS5003;35568;48.104;11.782;2023-06-10T15:05:22;3;3;
48155;PMS5003;35568;48.104;11.782;2023-06-10T15:07:49;4;4;
48155;PMS5003;35568;48.104;11.782;2023-06-10T15:10:16;5;4;
48155;PMS5003;35568;48.104;11.782;2023-06-10T15:12:43;5;5;
48155;PMS5003;35568;48.104;11.782;2023-06-10T15:15:10;8;8;
48155;PMS5003;35568;48.104;11.782;2023-06-10T15:17:36;5;4;
48155;PMS5003;35568;48.104;11.782;2023-06-10T15:20:03;4;4;
48155;PMS5003;35568;48.104;11.782;2023-06-10T15:22:32;3;3;
48155;PMS5003;35568;48.104;11.782;2023-06-10T15:24:58;5;5;
48155;PMS5003;35568;48.104;11.782;2023-06-10T15:27:25;4;4;
48155;PMS5003;35568;48.104;11.782;2023-06-10T15:29:52;7;7;
48155;PMS5003;35568;48.104;11.782;2023-06-10T15:32:19;5;5;
48155;PMS5003;35568;48.104;11.782;2023-06-10T15:34:46;5;5;
48155;PMS5003;35568;48.104;11.782;2023-06-10T15:37:12;4;4;
48155;PMS5003;35568;48.104;11.782;2023-06-10T15:39:40;5;4;
48155;PMS5003;35568;48.104;11.782;2023-06-10T15:42:07;6;5;
48155;PMS5003;35568;48.104;11.782;2023-06-10T15:44:34;5;5;
48155;PMS5003;35568;48.104;11.782;2023-06-10T15:47:01;6;5;
48155;PMS5003;35568;48.104;11.782;2023-06-10T15:49:29;4;4;
48155;PMS5003;35568;48.104;11.782;2023-06-10T15:51:56;6;6;
48155;PMS5003;35568;48.104;11.782;2023-06-10T15:54:22;6;5;
48155;PMS5003;35568;48.104;11.782;2023-06-10T15:56:49;4;4;
48155;PMS5003;35568;48.104;11.782;2023-06-10T15:59:16;7;7;
48155;PMS5003;35568;48.104;11.782;2023-06-10T16:01:43;6;6;
48155;PMS5003;35568;48.104;11.782;2023-06-10T16:04:09;8;7;
48155;PMS5003;35568;48.104;11.782;2023-06-10T16:06:36;5;5;
48155;PMS5003;35568;48.104;11.782;2023-06-10T16:09:03;5;5;
48155;PMS5003;35568;48.104;11.782;2023-06-10T16:11:30;7;7;
48155;PMS5003;35568;48.104;11.782;2023-06-10T16:13:57;6;6;
48155;PMS5003;35568;48.104;11.782;2023-06-10T16:16:23;8;7;
48155;PMS5003;35568;48.104;11.782;2023-06-10T16:18:51;38;37;
48155;PMS5003;35568;48.104;11.782;2023-06-10T16:21:18;18;18;
48155;PMS5003;35568;48.104;11.782;2023-06-10T16:23:44;22;20;
48155;PMS5003;35568;48.104;11.782;2023-06-10T16:26:11;7;7;